createdAt,value
2022-11-18T00:00:04.116Z,28.58
2022-11-18T00:02:34.258Z,31.15
2022-11-18T00:05:02.117Z,39.17
2022-11-18T00:07:32.924Z,29.83
2022-11-18T00:10:00.884Z,34.67
2022-11-18T00:12:46.215Z,32.75
2022-11-18T00:15:14.122Z,34.72
2022-11-18T00:17:43.346Z,32.88
2022-11-18T00:20:11.591Z,29.88
2022-11-18T00:22:39.447Z,36.45
2022-11-18T00:25:08.030Z,35.20
2022-11-18T00:27:36.017Z,36.45
2022-11-18T00:30:04.120Z,36.55
2022-11-18T00:32:31.996Z,37.80
2022-11-18T00:35:02.343Z,35.63
2022-11-18T00:37:30.341Z,35.35
2022-11-18T00:39:58.526Z,43.90
2022-11-18T00:42:43.797Z,32.33
2022-11-18T00:45:12.067Z,27.23
2022-11-18T00:47:40.068Z,44.08
2022-11-18T00:50:10.399Z,41.08
2022-11-18T00:52:38.394Z,33.50
2022-11-18T00:55:07.086Z,31.02
2022-11-18T00:57:35.027Z,37.08
2022-11-18T01:00:03.440Z,38.65
2022-11-18T01:02:31.335Z,36.25
2022-11-18T01:05:00.793Z,34.20
2022-11-18T01:07:30.108Z,29.55
2022-11-18T01:09:58.302Z,33.53
2022-11-18T01:12:43.780Z,34.35
2022-11-18T01:15:11.601Z,27.45
2022-11-18T01:17:39.409Z,38.88
2022-11-18T01:20:08.123Z,38.47
2022-11-18T01:22:37.361Z,34.97
2022-11-18T01:25:05.768Z,36.63
2022-11-18T01:27:33.981Z,32.47
2022-11-18T01:30:01.980Z,38.58
2022-11-18T01:32:29.879Z,36.42
2022-11-18T01:34:57.714Z,33.95
2022-11-18T01:37:25.548Z,44.92
2022-11-18T01:39:54.760Z,34.65
2022-11-18T01:42:22.570Z,35.03
2022-11-18T01:45:11.744Z,30.50
2022-11-18T01:47:43.151Z,30.67
2022-11-18T01:50:11.540Z,33.97
2022-11-18T01:52:39.885Z,34.78
2022-11-18T01:55:12.926Z,34.90
2022-11-18T01:57:42.033Z,27.73
2022-11-18T02:00:11.160Z,24.95
2022-11-18T02:02:39.337Z,29.42
2022-11-18T02:05:09.361Z,27.05
2022-11-18T02:07:39.147Z,27.30
2022-11-18T02:10:09.846Z,28.08
2022-11-18T02:12:38.579Z,29.63
2022-11-18T02:15:07.363Z,24.58
2022-11-18T02:17:42.860Z,26.00
2022-11-18T02:20:29.369Z,26.17
2022-11-18T02:23:37.886Z,27.40
2022-11-18T02:26:41.180Z,26.65
2022-11-18T02:29:11.064Z,26.17
2022-11-18T02:31:45.550Z,29.35
2022-11-18T02:34:19.358Z,24.17
2022-11-18T02:36:51.945Z,36.35
2022-11-18T02:39:24.454Z,33.17
2022-11-18T02:41:54.902Z,33.75
2022-11-18T02:44:25.941Z,32.30
2022-11-18T02:46:57.222Z,28.90
2022-11-18T02:49:30.498Z,41.33
2022-11-18T02:51:59.384Z,30.55
2022-11-18T02:54:28.292Z,29.30
2022-11-18T02:56:56.575Z,27.20
2022-11-18T02:59:25.926Z,24.15
2022-11-18T03:01:53.855Z,30.50
2022-11-18T03:04:22.438Z,28.98
2022-11-18T03:06:52.098Z,30.90
2022-11-18T03:09:25.334Z,36.33
2022-11-18T03:11:57.995Z,26.13
2022-11-18T03:14:30.222Z,33.40
2022-11-18T03:17:01.722Z,37.92
2022-11-18T03:19:37.467Z,30.92
2022-11-18T03:22:11.497Z,27.67
2022-11-18T03:24:42.192Z,30.25
2022-11-18T03:27:13.869Z,29.00
2022-11-18T03:29:45.823Z,29.17
2022-11-18T03:32:17.636Z,29.55
2022-11-18T03:34:48.677Z,36.70
2022-11-18T03:37:18.068Z,22.25
2022-11-18T03:39:49.829Z,27.88
2022-11-18T03:42:26.570Z,26.80
2022-11-18T03:45:01.883Z,32.38
2022-11-18T03:47:33.339Z,24.23
2022-11-18T03:50:03.623Z,29.10
2022-11-18T03:52:34.312Z,33.60
2022-11-18T03:55:06.079Z,33.55
2022-11-18T03:57:40.270Z,29.23
2022-11-18T04:00:11.305Z,29.05
2022-11-18T04:02:39.503Z,29.50
2022-11-18T04:05:11.120Z,30.42
2022-11-18T04:07:43.952Z,29.95
2022-11-18T04:10:15.612Z,33.53
2022-11-18T04:12:46.105Z,30.95
2022-11-18T04:15:15.551Z,35.40
2022-11-18T04:17:44.213Z,34.72
2022-11-18T04:20:15.129Z,36.45
2022-11-18T04:22:43.221Z,33.00
2022-11-18T04:25:11.187Z,205.30
2022-11-18T04:27:39.239Z,36.75
2022-11-18T04:30:08.427Z,30.02
2022-11-18T04:32:37.891Z,31.70
2022-11-18T04:35:06.516Z,18.85
2022-11-18T04:37:34.433Z,35.53
2022-11-18T04:40:02.955Z,39.38
2022-11-18T04:42:30.798Z,32.53
2022-11-18T04:44:58.717Z,28.90
2022-11-18T04:47:26.535Z,48.47
2022-11-18T04:49:55.810Z,37.03
2022-11-18T04:52:23.733Z,28.73
2022-11-18T04:54:51.576Z,32.22
2022-11-18T04:57:19.383Z,30.83
2022-11-18T04:59:47.258Z,40.00
2022-11-18T05:02:15.242Z,34.88
2022-11-18T05:04:43.558Z,41.25
2022-11-18T05:07:15.235Z,40.97
2022-11-18T05:09:43.224Z,39.42
2022-11-18T05:12:31.129Z,33.30
2022-11-18T05:14:59.081Z,37.05
2022-11-18T05:17:26.951Z,39.95
2022-11-18T05:19:54.810Z,42.80
2022-11-18T05:22:24.049Z,46.50
2022-11-18T05:24:53.502Z,40.42
2022-11-18T05:27:21.796Z,39.38
2022-11-18T05:29:49.668Z,52.72
2022-11-18T05:32:17.640Z,39.67
2022-11-18T05:34:45.697Z,42.97
2022-11-18T05:37:14.072Z,43.72
2022-11-18T05:39:43.605Z,44.05
2022-11-18T05:42:29.341Z,42.17
2022-11-18T05:44:58.652Z,49.33
2022-11-18T05:47:27.284Z,37.80
2022-11-18T05:49:55.126Z,43.33
2022-11-18T05:52:22.978Z,44.38
2022-11-18T05:54:52.328Z,43.53
2022-11-18T05:57:20.200Z,46.22
2022-11-18T05:59:48.494Z,47.75
2022-11-18T06:02:18.795Z,47.97
2022-11-18T06:04:48.699Z,44.08
2022-11-18T06:07:19.687Z,37.90
2022-11-18T06:09:50.310Z,42.03
2022-11-18T06:12:22.344Z,45.85
2022-11-18T06:14:53.086Z,30.88
2022-11-18T06:17:24.069Z,39.55
2022-11-18T06:19:52.335Z,43.55
2022-11-18T06:22:20.312Z,35.40
2022-11-18T06:24:48.192Z,35.70
2022-11-18T06:27:16.635Z,40.97
2022-11-18T06:29:45.808Z,33.35
2022-11-18T06:32:13.721Z,35.75
2022-11-18T06:34:42.190Z,40.45
2022-11-18T06:37:14.632Z,37.10
2022-11-18T06:39:42.520Z,34.92
2022-11-18T06:42:10.384Z,32.00
2022-11-18T06:44:37.517Z,38.35
2022-11-18T06:47:06.941Z,39.90
2022-11-18T06:49:34.771Z,26.02
2022-11-18T06:52:02.594Z,25.60
2022-11-18T06:54:30.592Z,32.08
2022-11-18T06:56:58.458Z,41.80
2022-11-18T06:59:26.375Z,37.50
2022-11-18T07:01:54.310Z,26.98
2022-11-18T07:04:23.599Z,32.15
2022-11-18T07:06:51.431Z,11.18
2022-11-18T07:09:19.680Z,34.83
2022-11-18T07:11:48.364Z,37.17
2022-11-18T07:14:16.251Z,32.67
2022-11-18T07:16:44.964Z,27.58
2022-11-18T07:19:14.378Z,28.95
2022-11-18T07:21:43.819Z,32.17
2022-11-18T07:24:14.377Z,37.13
2022-11-18T07:26:42.750Z,31.05
2022-11-18T07:29:11.483Z,31.92
2022-11-18T07:31:39.880Z,32.70
2022-11-18T07:34:07.947Z,36.53
2022-11-18T07:36:36.364Z,27.98
2022-11-18T07:39:07.204Z,35.55
2022-11-18T07:41:35.443Z,32.30
2022-11-18T07:44:05.068Z,26.73
2022-11-18T07:46:34.100Z,27.77
2022-11-18T07:49:03.425Z,24.02
2022-11-18T07:51:34.409Z,26.38
2022-11-18T07:54:02.511Z,30.85
2022-11-18T07:56:31.874Z,34.58
2022-11-18T07:58:59.726Z,37.20
2022-11-18T08:01:29.115Z,27.90
2022-11-18T08:03:57.258Z,26.05
2022-11-18T08:06:25.545Z,29.92
2022-11-18T08:08:53.765Z,35.15
2022-11-18T08:11:23.105Z,20.50
2022-11-18T08:13:52.772Z,23.60
2022-11-18T08:16:22.122Z,26.88
2022-11-18T08:18:50.624Z,27.77
2022-11-18T08:21:20.285Z,32.33
2022-11-18T08:23:51.155Z,26.05
2022-11-18T08:26:19.240Z,26.35
2022-11-18T08:28:47.445Z,30.10
2022-11-18T08:31:18.810Z,27.35
2022-11-18T08:33:47.014Z,30.02
2022-11-18T08:36:17.503Z,17.50
2022-11-18T08:38:45.615Z,26.48
2022-11-18T08:41:14.131Z,28.90
2022-11-18T08:43:42.063Z,23.42
2022-11-18T08:46:10.045Z,34.88
2022-11-18T08:48:39.364Z,24.40
2022-11-18T08:51:07.632Z,27.70
2022-11-18T08:53:35.479Z,26.00
2022-11-18T08:56:03.389Z,23.75
2022-11-18T08:58:31.435Z,25.13
2022-11-18T09:00:59.622Z,23.60
2022-11-18T09:03:27.485Z,25.58
2022-11-18T09:06:06.557Z,27.15
2022-11-18T09:08:34.551Z,22.17
2022-11-18T09:11:06.847Z,24.73
2022-11-18T09:13:56.264Z,24.02
2022-11-18T09:16:27.704Z,20.60
2022-11-18T09:18:56.584Z,28.10
2022-11-18T09:21:27.135Z,28.08
2022-11-18T09:23:55.242Z,25.50
2022-11-18T09:26:24.220Z,29.67
2022-11-18T09:28:54.700Z,25.92
2022-11-18T09:31:22.812Z,24.40
2022-11-18T09:33:50.744Z,20.60
2022-11-18T09:36:20.609Z,26.67
2022-11-18T09:38:53.208Z,12.02
2022-11-18T09:41:41.016Z,23.33
2022-11-18T09:44:15.235Z,24.90
2022-11-18T09:46:51.810Z,17.73
2022-11-18T09:49:26.279Z,23.58
2022-11-18T09:51:55.269Z,24.00
2022-11-18T09:54:26.062Z,30.95
2022-11-18T09:56:55.699Z,21.38
2022-11-18T09:59:25.974Z,23.10
2022-11-18T10:01:56.903Z,25.77
2022-11-18T10:04:24.880Z,24.42
2022-11-18T10:06:52.771Z,30.70
2022-11-18T10:09:28.200Z,21.48
2022-11-18T10:12:10.439Z,24.50
2022-11-18T10:14:49.150Z,20.02
2022-11-18T10:17:27.247Z,22.52
2022-11-18T10:20:01.877Z,16.45
2022-11-18T10:22:34.326Z,20.42
2022-11-18T10:25:09.090Z,18.13
2022-11-18T10:27:39.790Z,15.23
2022-11-18T10:30:13.230Z,16.80
2022-11-18T10:32:55.110Z,15.02
2022-11-18T10:35:26.584Z,14.40
2022-11-18T10:38:08.525Z,32.72
2022-11-18T10:40:39.963Z,10.25
2022-11-18T10:43:07.820Z,20.20
2022-11-18T10:45:35.889Z,14.27
2022-11-18T10:48:09.468Z,17.02
2022-11-18T10:50:39.131Z,11.52
2022-11-18T10:53:07.910Z,19.77
2022-11-18T10:55:35.830Z,15.70
2022-11-18T10:58:11.374Z,15.48
2022-11-18T11:00:44.403Z,17.35
2022-11-18T11:03:27.509Z,15.95
2022-11-18T11:06:31.428Z,17.00
2022-11-18T11:09:04.719Z,11.48
2022-11-18T11:11:35.016Z,16.55
2022-11-18T11:14:17.969Z,16.83
2022-11-18T11:16:51.753Z,16.35
2022-11-18T11:19:24.756Z,11.18
2022-11-18T11:21:52.917Z,8.77
2022-11-18T11:24:21.669Z,13.13
2022-11-18T11:30:05.499Z,11.75
2022-11-18T11:32:42.627Z,18.48
2022-11-18T11:35:14.324Z,12.57
2022-11-18T11:37:51.670Z,18.88
2022-11-18T11:40:30.293Z,10.52
2022-11-18T11:43:20.613Z,15.35
2022-11-18T11:46:08.873Z,11.00
2022-11-18T11:48:46.463Z,12.02
2022-11-18T11:51:19.411Z,12.57
2022-11-18T11:54:07.309Z,14.15
2022-11-18T11:56:38.972Z,13.82
2022-11-18T11:59:25.221Z,8.80
2022-11-18T12:02:01.115Z,12.57
2022-11-18T12:04:42.393Z,16.95
2022-11-18T12:07:16.622Z,11.85
2022-11-18T12:10:15.669Z,14.02
2022-11-18T12:12:51.307Z,13.00
2022-11-18T12:15:27.547Z,15.50
2022-11-18T12:18:02.959Z,14.02
2022-11-18T12:20:43.606Z,15.40
2022-11-18T12:23:16.904Z,14.38
2022-11-18T12:25:52.833Z,14.23
2022-11-18T12:28:25.967Z,10.73
2022-11-18T12:31:38.457Z,14.32
2022-11-18T12:34:20.596Z,26.13
2022-11-18T12:36:48.868Z,9.32
2022-11-18T12:39:53.963Z,10.95
2022-11-18T12:43:00.299Z,10.57
2022-11-18T12:45:50.167Z,15.07
2022-11-18T12:48:36.524Z,11.18
2022-11-18T12:51:27.126Z,13.13
2022-11-18T12:53:55.934Z,6.07
2022-11-18T12:56:25.544Z,9.57
2022-11-18T12:58:54.403Z,11.48
2022-11-18T13:01:23.939Z,7.10
2022-11-18T13:03:52.316Z,11.82
2022-11-18T13:06:25.892Z,10.60
2022-11-18T13:08:56.049Z,10.70
2022-11-18T13:11:41.662Z,7.60
2022-11-18T13:14:33.377Z,7.53
2022-11-18T13:17:30.241Z,10.32
2022-11-18T13:19:58.837Z,8.55
2022-11-18T13:22:45.445Z,6.60
2022-11-18T13:25:24.251Z,9.73
2022-11-18T13:27:57.763Z,8.27
2022-11-18T13:30:25.705Z,6.43
2022-11-18T13:32:55.688Z,8.27
2022-11-18T13:35:27.195Z,6.20
2022-11-18T13:37:58.045Z,6.15
2022-11-18T13:40:27.737Z,11.15
2022-11-18T13:42:55.745Z,23.35
2022-11-18T13:45:27.030Z,6.03
2022-11-18T13:47:57.528Z,7.90
2022-11-18T13:50:28.024Z,5.73
2022-11-18T13:53:16.065Z,5.60
2022-11-18T13:55:47.814Z,5.20
2022-11-18T13:58:40.121Z,5.17
2022-11-18T14:01:20.651Z,8.23
2022-11-18T14:03:51.760Z,6.30
2022-11-18T14:06:29.467Z,6.60
2022-11-18T14:09:21.287Z,3.43
2022-11-18T14:12:00.266Z,5.70
2022-11-18T14:14:31.959Z,7.00
2022-11-18T14:17:16.570Z,5.43
2022-11-18T14:19:44.882Z,4.75
2022-11-18T14:22:15.458Z,6.38
2022-11-18T14:24:44.860Z,7.60
2022-11-18T14:27:38.454Z,7.40
2022-11-18T14:30:32.378Z,9.68
2022-11-18T14:33:20.562Z,8.73
2022-11-18T14:35:53.642Z,10.55
2022-11-18T14:41:14.654Z,8.90
2022-11-18T14:43:45.840Z,16.75
2022-11-18T14:46:16.472Z,7.88
2022-11-18T14:48:44.606Z,9.98
2022-11-18T14:51:16.454Z,6.65
2022-11-18T14:53:44.956Z,8.85
2022-11-18T14:56:16.494Z,7.15
2022-11-18T14:58:44.403Z,4.95
2022-11-18T15:01:13.399Z,3.35
2022-11-18T15:03:41.545Z,8.15
2022-11-18T15:06:14.458Z,6.13
2022-11-18T15:08:43.006Z,3.33
2022-11-18T15:11:11.049Z,5.13
2022-11-18T15:13:40.507Z,5.63
2022-11-18T15:16:14.646Z,3.65
2022-11-18T15:18:42.563Z,5.60
2022-11-18T15:21:10.648Z,5.95
2022-11-18T15:23:38.792Z,5.65
2022-11-18T15:26:18.840Z,5.43
2022-11-18T15:28:48.220Z,7.25
2022-11-18T15:31:16.129Z,5.78
2022-11-18T15:33:44.415Z,4.20
2022-11-18T15:36:14.575Z,5.22
2022-11-18T15:38:42.924Z,9.20
2022-11-18T15:41:16.927Z,4.03
2022-11-18T15:43:45.102Z,5.93
2022-11-18T15:46:14.749Z,8.70
2022-11-18T15:48:43.043Z,6.35
2022-11-18T15:51:12.292Z,12.02
2022-11-18T15:53:40.551Z,8.00
2022-11-18T15:56:26.817Z,6.88
2022-11-18T15:58:56.624Z,5.05
2022-11-18T16:01:27.136Z,4.75
2022-11-18T16:03:55.149Z,5.25
2022-11-18T16:06:23.259Z,8.88
2022-11-18T16:08:57.632Z,6.60
2022-11-18T16:11:44.224Z,7.40
2022-11-18T16:14:16.021Z,8.43
2022-11-18T16:16:46.714Z,5.90
2022-11-18T16:19:17.031Z,8.13
2022-11-18T16:21:46.937Z,4.20
2022-11-18T16:24:17.631Z,8.85
2022-11-18T16:26:45.933Z,8.50
2022-11-18T16:29:15.812Z,8.20
2022-11-18T16:31:50.322Z,3.47
2022-11-18T16:34:19.737Z,6.65
2022-11-18T16:36:49.070Z,8.40
2022-11-18T16:39:18.251Z,10.40
2022-11-18T16:44:15.420Z,6.55
2022-11-18T16:46:46.767Z,8.68
2022-11-18T16:49:16.195Z,4.90
2022-11-18T16:51:45.723Z,7.63
2022-11-18T16:54:17.951Z,12.10
2022-11-18T16:56:46.320Z,9.27
2022-11-18T16:59:15.992Z,10.02
2022-11-18T17:01:46.047Z,7.80
2022-11-18T17:04:14.306Z,8.48
2022-11-18T17:06:42.593Z,6.18
2022-11-18T17:09:14.441Z,8.65
2022-11-18T17:11:42.424Z,5.00
2022-11-18T17:14:10.502Z,10.52
2022-11-18T17:16:38.399Z,10.88
2022-11-18T17:19:17.231Z,10.88
2022-11-18T17:21:45.705Z,16.90
2022-11-18T17:24:16.600Z,9.27
2022-11-18T17:26:45.283Z,11.55
2022-11-18T17:29:14.227Z,6.55
2022-11-18T17:31:42.695Z,10.52
2022-11-18T17:34:13.773Z,12.27
2022-11-18T17:36:42.306Z,8.32
2022-11-18T17:39:12.566Z,10.90
2022-11-18T17:41:57.975Z,9.45
2022-11-18T17:44:26.016Z,11.95
2022-11-18T17:46:53.984Z,9.40
2022-11-18T17:49:23.291Z,6.85
2022-11-18T17:51:52.182Z,8.02
2022-11-18T17:54:20.730Z,7.82
2022-11-18T17:56:49.839Z,16.15
2022-11-18T17:59:18.213Z,11.38
2022-11-18T18:01:46.843Z,7.95
2022-11-18T18:04:20.235Z,8.55
2022-11-18T18:06:51.584Z,12.05
2022-11-18T18:09:22.791Z,10.50
2022-11-18T18:11:53.363Z,7.65
2022-11-18T18:14:20.639Z,7.30
2022-11-18T18:16:50.245Z,11.45
2022-11-18T18:19:19.596Z,8.98
2022-11-18T18:21:47.610Z,7.60
2022-11-18T18:24:19.524Z,10.23
2022-11-18T18:26:47.862Z,9.32
2022-11-18T18:29:16.056Z,12.10
2022-11-18T18:31:43.985Z,11.20
2022-11-18T18:34:11.958Z,11.23
2022-11-18T18:36:39.799Z,7.07
2022-11-18T18:39:07.698Z,13.45
2022-11-18T18:41:38.401Z,8.82
2022-11-18T18:44:06.376Z,11.02
2022-11-18T18:46:33.341Z,9.68
2022-11-18T18:49:03.786Z,10.48
2022-11-18T18:51:33.789Z,10.45
2022-11-18T18:54:01.778Z,8.20
2022-11-18T18:56:29.746Z,11.15
2022-11-18T18:58:59.215Z,7.90
2022-11-18T19:01:27.939Z,10.27
2022-11-18T19:03:57.119Z,14.43
2022-11-18T19:06:53.214Z,7.55
2022-11-18T19:09:14.751Z,11.13
2022-11-18T19:12:00.152Z,14.68
2022-11-18T19:14:30.016Z,11.18
2022-11-18T19:16:57.933Z,10.73
2022-11-18T19:19:41.135Z,11.10
2022-11-18T19:22:10.128Z,9.75
2022-11-18T19:24:54.213Z,10.98
2022-11-18T19:27:22.831Z,13.68
2022-11-18T19:29:52.137Z,16.20
2022-11-18T19:32:20.006Z,13.63
2022-11-18T19:34:47.845Z,16.60
2022-11-18T19:37:17.227Z,12.35
2022-11-18T19:39:45.155Z,13.20
2022-11-18T19:42:13.126Z,10.30
2022-11-18T19:44:40.989Z,12.88
2022-11-18T19:47:10.216Z,13.00
2022-11-18T19:49:38.107Z,17.77
2022-11-18T19:52:06.049Z,20.65
2022-11-18T19:54:33.952Z,16.52
2022-11-18T19:57:03.860Z,16.20
2022-11-18T19:59:31.818Z,14.18
2022-11-18T20:01:59.720Z,11.05
2022-11-18T20:04:29.162Z,13.50
2022-11-18T20:06:57.677Z,20.92
2022-11-18T20:09:25.993Z,10.60
2022-11-18T20:11:53.893Z,11.57
2022-11-18T20:14:21.733Z,16.63
2022-11-18T20:16:51.510Z,21.30
2022-11-18T20:19:19.533Z,13.35
2022-11-18T20:21:49.380Z,21.10
2022-11-18T20:24:18.591Z,22.67
2022-11-18T20:26:46.772Z,20.20
2022-11-18T20:29:14.600Z,17.58
2022-11-18T20:31:42.592Z,19.33
2022-11-18T20:34:12.936Z,11.52
2022-11-18T20:36:40.995Z,18.50
2022-11-18T20:39:14.746Z,15.13
2022-11-18T20:41:42.883Z,35.75
2022-11-18T20:44:10.732Z,19.05
2022-11-18T20:46:38.565Z,19.08
2022-11-18T20:49:06.444Z,25.15
2022-11-18T20:51:34.334Z,17.73
2022-11-18T20:54:07.594Z,19.40
2022-11-18T20:56:37.089Z,15.77
2022-11-18T20:59:04.931Z,17.58
2022-11-18T21:01:33.918Z,15.40
2022-11-18T21:04:03.371Z,22.92
2022-11-18T21:06:32.355Z,20.90
2022-11-18T21:09:02.114Z,21.50
2022-11-18T21:11:30.273Z,14.27
2022-11-18T21:14:22.997Z,24.45
2022-11-18T21:16:52.110Z,15.70
2022-11-18T21:19:20.342Z,14.80
2022-11-18T21:21:51.860Z,19.02
2022-11-18T21:24:22.835Z,18.90
2022-11-18T21:26:54.344Z,25.90
2022-11-18T21:29:24.339Z,21.10
2022-11-18T21:31:52.754Z,15.38
2022-11-18T21:34:21.149Z,17.50
2022-11-18T21:36:54.278Z,25.70
2022-11-18T21:39:23.311Z,20.35
2022-11-18T21:41:55.633Z,22.20
2022-11-18T21:44:27.766Z,22.08
2022-11-18T21:46:56.215Z,21.17
2022-11-18T21:49:24.148Z,27.10
2022-11-18T21:51:52.022Z,19.80
2022-11-18T21:54:19.843Z,22.92
2022-11-18T21:56:47.691Z,18.05
2022-11-18T21:59:15.531Z,18.05
2022-11-18T22:01:44.826Z,18.33
2022-11-18T22:04:32.711Z,12.45
2022-11-18T22:07:00.638Z,18.75
2022-11-18T22:09:34.549Z,17.48
2022-11-18T22:12:04.142Z,16.00
2022-11-18T22:14:32.109Z,18.48
2022-11-18T22:17:01.905Z,17.45
2022-11-18T22:19:29.973Z,21.85
2022-11-18T22:21:57.986Z,16.38
2022-11-18T22:24:25.850Z,23.83
2022-11-18T22:26:53.793Z,24.67
2022-11-18T22:29:24.036Z,17.10
2022-11-18T22:31:51.993Z,20.73
2022-11-18T22:34:21.216Z,15.60
2022-11-18T22:36:49.051Z,15.50
2022-11-18T22:39:17.411Z,21.02
2022-11-18T22:42:02.671Z,15.15
2022-11-18T22:44:30.582Z,16.58
2022-11-18T22:46:58.500Z,15.30
2022-11-18T22:49:27.694Z,16.50
2022-11-18T22:51:55.589Z,20.58
2022-11-18T22:54:38.220Z,16.75
2022-11-18T22:57:06.981Z,22.42
2022-11-18T22:59:34.839Z,15.65
2022-11-18T23:02:02.770Z,16.95
2022-11-18T23:04:32.003Z,15.95
2022-11-18T23:06:59.913Z,15.07
2022-11-18T23:09:29.187Z,14.70
2022-11-18T23:12:14.540Z,15.07
2022-11-18T23:14:42.388Z,14.27
2022-11-18T23:17:10.262Z,18.17
2022-11-18T23:19:43.441Z,15.45
2022-11-18T23:22:11.387Z,30.38
2022-11-18T23:24:39.266Z,12.90
2022-11-18T23:27:07.136Z,15.85
2022-11-18T23:29:34.992Z,22.88
2022-11-18T23:32:03.541Z,19.55
2022-11-18T23:34:31.355Z,17.45
2022-11-18T23:37:00.582Z,15.55
2022-11-18T23:39:28.561Z,13.55
2022-11-18T23:41:56.395Z,14.20
2022-11-18T23:44:44.274Z,14.65
2022-11-18T23:47:12.154Z,15.73
2022-11-18T23:49:39.999Z,23.80
2022-11-18T23:52:09.335Z,12.07
2022-11-18T23:54:37.210Z,33.97
2022-11-18T23:57:05.588Z,23.85
2022-11-18T23:59:34.079Z,23.23
